This is the latest recevied weather packets stored in our database for station/object E24QND-2. If no packets are shown the sender has not sent any weather packets the latest 10 day(s).
| Time | Temp. | Humidity | Pressure | Rain* | Wind** | Luminosity | Snow |
|---|---|---|---|---|---|---|---|
| 1788474224 | 27.78° C | 1% | - | - | - | 0 W/m² | - |
| 1788472999 | 27.78° C | 1% | - | - | - | 0 W/m² | - |
| 1788471775 | 27.78° C | 1% | - | - | - | 0 W/m² | - |
| 1788470550 | 27.78° C | 99% | - | - | - | 0 W/m² | - |
| 1788469326 | 27.78° C | 1% | - | - | - | 0 W/m² | - |
| 1788468102 | 27.78° C | 1% | - | - | - | 0 W/m² | - |
| 1788466877 | 27.78° C | 99% | - | - | - | 0 W/m² | - |
| 1788465652 | 27.78° C | 1% | - | - | - | 0 W/m² | - |
| 1788464427 | 27.78° C | 1% | - | - | - | 0 W/m² | - |
| 1788463203 | 27.78° C | 99% | - | - | - | 0 W/m² | - |
| 1788461978 | 27.22° C | 1% | - | - | - | 0 W/m² | - |
| 1788460754 | 27.78° C | 25% | - | - | - | 0 W/m² | - |
| 1788459530 | 27.22° C | 1% | - | - | - | 0 W/m² | - |
| 1788458305 | 27.78° C | 1% | - | - | - | 0 W/m² | - |
| 1788457055 | 27.78° C | 1% | - | - | - | 0 W/m² | - |
| 1788455830 | 27.78° C | 61% | - | - | - | 0 W/m² | - |
| 1788454606 | 27.78° C | 1% | - | - | - | 0 W/m² | - |
| 1788453409 | 27.78° C | 1% | - | - | - | 0 W/m² | - |
| 1788452157 | 27.78° C | 1% | - | - | - | 0 W/m² | - |
| 1788450932 | 27.78° C | 1% | - | - | - | 0 W/m² | - |
| 1788449708 | 27.22° C | 1% | - | - | - | 0 W/m² | - |
| 1788448483 | 28.33° C | 99% | - | - | - | 0 W/m² | - |
| 1788447258 | 27.78° C | 1% | - | - | - | 0 W/m² | - |
| 1788446034 | 28.33° C | 1% | - | - | - | 0 W/m² | - |
| 1788444809 | 28.89° C | 99% | - | - | - | 0 W/m² | - |
* Rain since midnight (hover to see other rain measurements)
** Current wind speed in m/s (hover to see current wind gust speed)